sensor_id;sensor_type;location;lat;lon;timestamp;pressure;altitude;pressure_sealevel;temperature
45393;BMP280;31129;44.810;10.334;2023-03-01T00:01:08;101195.63;;;6.74
45393;BMP280;31129;44.810;10.334;2023-03-01T00:03:35;101184.28;;;6.79
45393;BMP280;31129;44.810;10.334;2023-03-01T00:06:01;101175.41;;;6.79
45393;BMP280;31129;44.810;10.334;2023-03-01T00:08:27;101182.09;;;6.74
45393;BMP280;31129;44.810;10.334;2023-03-01T00:11:02;101176.16;;;6.63
45393;BMP280;31129;44.810;10.334;2023-03-01T00:13:32;101179.69;;;6.60
45393;BMP280;31129;44.810;10.334;2023-03-01T00:15:57;101176.91;;;6.64
45393;BMP280;31129;44.810;10.334;2023-03-01T00:18:23;101178.16;;;6.59
45393;BMP280;31129;44.810;10.334;2023-03-01T00:20:50;101177.75;;;6.60
45393;BMP280;31129;44.810;10.334;2023-03-01T00:23:16;101179.69;;;6.60
45393;BMP280;31129;44.810;10.334;2023-03-01T00:25:42;101167.81;;;6.54
45393;BMP280;31129;44.810;10.334;2023-03-01T00:28:08;101165.03;;;6.57
45393;BMP280;31129;44.810;10.334;2023-03-01T00:30:33;101164.03;;;6.68
45393;BMP280;31129;44.810;10.334;2023-03-01T00:32:58;101167.59;;;6.65
45393;BMP280;31129;44.810;10.334;2023-03-01T00:35:24;101170.19;;;6.52
45393;BMP280;31129;44.810;10.334;2023-03-01T00:37:49;101164.19;;;6.60
45393;BMP280;31129;44.810;10.334;2023-03-01T00:40:31;101164.19;;;6.60
45393;BMP280;31129;44.810;10.334;2023-03-01T00:42:57;101161.72;;;6.50
45393;BMP280;31129;44.810;10.334;2023-03-01T00:45:22;101153.16;;;6.51
45393;BMP280;31129;44.810;10.334;2023-03-01T00:47:51;101164.84;;;6.48
45393;BMP280;31129;44.810;10.334;2023-03-01T00:50:17;101157.41;;;6.52
45393;BMP280;31129;44.810;10.334;2023-03-01T00:52:43;101155.03;;;6.54
45393;BMP280;31129;44.810;10.334;2023-03-01T00:55:09;101148.84;;;6.54
45393;BMP280;31129;44.810;10.334;2023-03-01T00:57:34;101150.72;;;6.57
45393;BMP280;31129;44.810;10.334;2023-03-01T01:00:00;101152.16;;;6.62
45393;BMP280;31129;44.810;10.334;2023-03-01T01:02:25;101144.28;;;6.51
45393;BMP280;31129;44.810;10.334;2023-03-01T01:04:51;101133.44;;;6.51
45393;BMP280;31129;44.810;10.334;2023-03-01T01:07:19;101128.97;;;6.44
45393;BMP280;31129;44.810;10.334;2023-03-01T01:09:48;101126.06;;;6.51
45393;BMP280;31129;44.810;10.334;2023-03-01T01:12:13;101117.69;;;6.46
45393;BMP280;31129;44.810;10.334;2023-03-01T01:14:39;101114.56;;;6.31
45393;BMP280;31129;44.810;10.334;2023-03-01T01:17:04;101108.03;;;6.29
45393;BMP280;31129;44.810;10.334;2023-03-01T01:19:30;101106.13;;;6.25
45393;BMP280;31129;44.810;10.334;2023-03-01T01:21:56;101104.19;;;6.26
45393;BMP280;31129;44.810;10.334;2023-03-01T01:24:21;101104.56;;;6.28
45393;BMP280;31129;44.810;10.334;2023-03-01T01:26:50;101091.81;;;6.25
45393;BMP280;31129;44.810;10.334;2023-03-01T01:29:15;101092.31;;;6.20
45393;BMP280;31129;44.810;10.334;2023-03-01T01:31:42;101082.44;;;6.13
45393;BMP280;31129;44.810;10.334;2023-03-01T01:34:13;101079.66;;;6.17
45393;BMP280;31129;44.810;10.334;2023-03-01T01:36:39;101076.19;;;6.16
45393;BMP280;31129;44.810;10.334;2023-03-01T01:39:04;101075.97;;;6.07
45393;BMP280;31129;44.810;10.334;2023-03-01T01:41:31;101076.19;;;6.16
45393;BMP280;31129;44.810;10.334;2023-03-01T01:46:56;101077.19;;;6.22
45393;BMP280;31129;44.810;10.334;2023-03-01T01:49:24;101064.28;;;6.10
45393;BMP280;31129;44.810;10.334;2023-03-01T01:55:11;101070.31;;;6.02
45393;BMP280;31129;44.810;10.334;2023-03-01T01:57:45;101066.59;;;6.12
45393;BMP280;31129;44.810;10.334;2023-03-01T02:00:17;101069.25;;;5.95
45393;BMP280;31129;44.810;10.334;2023-03-01T02:02:45;101061.31;;;6.05
45393;BMP280;31129;44.810;10.334;2023-03-01T02:07:52;101044.00;;;6.02
45393;BMP280;31129;44.810;10.334;2023-03-01T02:10:20;101045.06;;;6.05
45393;BMP280;31129;44.810;10.334;2023-03-01T02:12:46;101039.00;;;6.01
45393;BMP280;31129;44.810;10.334;2023-03-01T02:15:11;101036.44;;;5.93
45393;BMP280;31129;44.810;10.334;2023-03-01T02:17:37;101034.66;;;5.87
45393;BMP280;31129;44.810;10.334;2023-03-01T02:22:53;101028.81;;;6.05
45393;BMP280;31129;44.810;10.334;2023-03-01T02:30:38;101018.66;;;6.09
45393;BMP280;31129;44.810;10.334;2023-03-01T02:33:25;101021.28;;;5.96
45393;BMP280;31129;44.810;10.334;2023-03-01T02:35:54;101020.28;;;6.06
45393;BMP280;31129;44.810;10.334;2023-03-01T02:38:20;101016.81;;;6.06
45393;BMP280;31129;44.810;10.334;2023-03-01T02:40:49;101022.16;;;6.09
45393;BMP280;31129;44.810;10.334;2023-03-01T02:43:16;101018.66;;;5.92
45393;BMP280;31129;44.810;10.334;2023-03-01T02:45:50;101018.09;;;6.01
45393;BMP280;31129;44.810;10.334;2023-03-01T02:48:17;101011.63;;;5.95
45393;BMP280;31129;44.810;10.334;2023-03-01T02:51:07;101015.28;;;6.05
45393;BMP280;31129;44.810;10.334;2023-03-01T02:53:45;101008.50;;;5.97
45393;BMP280;31129;44.810;10.334;2023-03-01T02:56:17;101011.81;;;6.04
45393;BMP280;31129;44.810;10.334;2023-03-01T02:58:44;101000.25;;;6.04
45393;BMP280;31129;44.810;10.334;2023-03-01T03:01:20;100992.44;;;6.06
45393;BMP280;31129;44.810;10.334;2023-03-01T03:03:45;100986.59;;;6.07
45393;BMP280;31129;44.810;10.334;2023-03-01T03:06:12;100996.53;;;6.14
45393;BMP280;31129;44.810;10.334;2023-03-01T03:08:38;100990.28;;;6.17
45393;BMP280;31129;44.810;10.334;2023-03-01T03:11:03;100989.50;;;6.16
45393;BMP280;31129;44.810;10.334;2023-03-01T03:13:28;100985.63;;;6.17
45393;BMP280;31129;44.810;10.334;2023-03-01T03:15:55;100986.34;;;6.18
45393;BMP280;31129;44.810;10.334;2023-03-01T03:18:22;100978.66;;;6.16
45393;BMP280;31129;44.810;10.334;2023-03-01T03:20:48;100985.16;;;6.19
45393;BMP280;31129;44.810;10.334;2023-03-01T03:23:19;100983.31;;;6.16
45393;BMP280;31129;44.810;10.334;2023-03-01T03:25:44;100975.50;;;6.18
45393;BMP280;31129;44.810;10.334;2023-03-01T03:28:10;100975.00;;;6.23
45393;BMP280;31129;44.810;10.334;2023-03-01T03:30:37;100982.44;;;6.19
45393;BMP280;31129;44.810;10.334;2023-03-01T03:33:05;100980.75;;;6.25
45393;BMP280;31129;44.810;10.334;2023-03-01T03:35:34;100977.72;;;6.23
45393;BMP280;31129;44.810;10.334;2023-03-01T03:38:03;100982.44;;;6.19
45393;BMP280;31129;44.810;10.334;2023-03-01T03:40:40;100969.38;;;6.46
45393;BMP280;31129;44.810;10.334;2023-03-01T03:43:08;100969.72;;;6.48
45393;BMP280;31129;44.810;10.334;2023-03-01T03:45:34;100968.13;;;6.51
45393;BMP280;31129;44.810;10.334;2023-03-01T03:48:01;100968.19;;;6.47
45393;BMP280;31129;44.810;10.334;2023-03-01T03:50:27;100966.00;;;6.42
45393;BMP280;31129;44.810;10.334;2023-03-01T03:52:53;100970.19;;;6.31
45393;BMP280;31129;44.810;10.334;2023-03-01T03:55:18;100967.50;;;6.31
45393;BMP280;31129;44.810;10.334;2023-03-01T03:57:46;100963.06;;;6.37
45393;BMP280;31129;44.810;10.334;2023-03-01T04:00:19;100963.47;;;6.35
45393;BMP280;31129;44.810;10.334;2023-03-01T04:02:46;100961.09;;;6.37
45393;BMP280;31129;44.810;10.334;2023-03-01T04:05:13;100970.19;;;6.31
45393;BMP280;31129;44.810;10.334;2023-03-01T04:07:40;100968.56;;;6.33
45393;BMP280;31129;44.810;10.334;2023-03-01T04:10:12;100965.84;;;6.33
45393;BMP280;31129;44.810;10.334;2023-03-01T04:12:38;100961.03;;;6.24
45393;BMP280;31129;44.810;10.334;2023-03-01T04:15:05;100965.53;;;6.31
45393;BMP280;31129;44.810;10.334;2023-03-01T04:17:42;100956.09;;;6.36
45393;BMP280;31129;44.810;10.334;2023-03-01T04:20:10;100956.97;;;6.33
45393;BMP280;31129;44.810;10.334;2023-03-01T04:22:37;100955.78;;;6.34
45393;BMP280;31129;44.810;10.334;2023-03-01T04:25:03;100947.88;;;6.39
45393;BMP280;31129;44.810;10.334;2023-03-01T04:27:30;100949.94;;;6.35
45393;BMP280;31129;44.810;10.334;2023-03-01T04:29:55;100954.13;;;6.52
45393;BMP280;31129;44.810;10.334;2023-03-01T04:32:20;100950.41;;;6.46
45393;BMP280;31129;44.810;10.334;2023-03-01T04:34:46;100947.97;;;6.36
45393;BMP280;31129;44.810;10.334;2023-03-01T04:37:11;100948.03;;;6.48
45393;BMP280;31129;44.810;10.334;2023-03-01T04:39:36;100950.53;;;6.43
45393;BMP280;31129;44.810;10.334;2023-03-01T04:42:11;100947.41;;;6.44
45393;BMP280;31129;44.810;10.334;2023-03-01T04:44:36;100947.31;;;6.32
45393;BMP280;31129;44.810;10.334;2023-03-01T04:47:01;100947.88;;;6.39
45393;BMP280;31129;44.810;10.334;2023-03-01T04:49:27;100957.97;;;6.39
45393;BMP280;31129;44.810;10.334;2023-03-01T04:51:52;100949.41;;;6.40
45393;BMP280;31129;44.810;10.334;2023-03-01T04:54:17;100955.91;;;6.59
45393;BMP280;31129;44.810;10.334;2023-03-01T04:56:43;100955.97;;;6.43
45393;BMP280;31129;44.810;10.334;2023-03-01T04:59:08;100949.00;;;6.42
45393;BMP280;31129;44.810;10.334;2023-03-01T05:01:35;100957.22;;;6.38
45393;BMP280;31129;44.810;10.334;2023-03-01T05:04:01;100950.50;;;6.14
45393;BMP280;31129;44.810;10.334;2023-03-01T05:06:28;100955.16;;;6.13
45393;BMP280;31129;44.810;10.334;2023-03-01T05:08:53;100948.69;;;5.91
45393;BMP280;31129;44.810;10.334;2023-03-01T05:11:19;100957.97;;;5.90
45393;BMP280;31129;44.810;10.334;2023-03-01T05:13:44;100951.06;;;5.89
45393;BMP280;31129;44.810;10.334;2023-03-01T05:16:10;100944.44;;;6.06
45393;BMP280;31129;44.810;10.334;2023-03-01T05:18:36;100951.91;;;5.86
45393;BMP280;31129;44.810;10.334;2023-03-01T05:23:30;100957.03;;;5.64
45393;BMP280;31129;44.810;10.334;2023-03-01T05:26:03;100953.75;;;5.56
45393;BMP280;31129;44.810;10.334;2023-03-01T05:28:29;100957.09;;;5.60
45393;BMP280;31129;44.810;10.334;2023-03-01T05:30:56;100945.75;;;5.49
45393;BMP280;31129;44.810;10.334;2023-03-01T05:33:22;100953.88;;;5.49
45393;BMP280;31129;44.810;10.334;2023-03-01T05:35:49;100941.06;;;5.53
45393;BMP280;31129;44.810;10.334;2023-03-01T05:38:15;100943.34;;;5.55
45393;BMP280;31129;44.810;10.334;2023-03-01T05:40:43;100938.09;;;5.64
45393;BMP280;31129;44.810;10.334;2023-03-01T05:43:14;100938.38;;;5.70
45393;BMP280;31129;44.810;10.334;2023-03-01T05:45:41;100944.69;;;5.63
45393;BMP280;31129;44.810;10.334;2023-03-01T05:48:07;100948.16;;;5.63
45393;BMP280;31129;44.810;10.334;2023-03-01T05:50:36;100944.34;;;5.61
45393;BMP280;31129;44.810;10.334;2023-03-01T05:55:28;100950.38;;;5.69
45393;BMP280;31129;44.810;10.334;2023-03-01T05:57:55;100953.56;;;5.63
45393;BMP280;31129;44.810;10.334;2023-03-01T06:00:22;100951.63;;;5.64
45393;BMP280;31129;44.810;10.334;2023-03-01T06:02:48;100946.03;;;5.55
45393;BMP280;31129;44.810;10.334;2023-03-01T06:05:14;100944.66;;;5.47
45393;BMP280;31129;44.810;10.334;2023-03-01T06:07:40;100956.06;;;5.38
45393;BMP280;31129;44.810;10.334;2023-03-01T06:10:06;100953.59;;;5.44
45393;BMP280;31129;44.810;10.334;2023-03-01T06:12:33;100948.84;;;5.51
45393;BMP280;31129;44.810;10.334;2023-03-01T06:15:00;100951.00;;;5.40
45393;BMP280;31129;44.810;10.334;2023-03-01T06:17:29;100952.69;;;5.50
45393;BMP280;31129;44.810;10.334;2023-03-01T06:19:55;100951.88;;;5.53
45393;BMP280;31129;44.810;10.334;2023-03-01T06:22:20;100955.00;;;5.52
45393;BMP280;31129;44.810;10.334;2023-03-01T06:24:46;100956.16;;;5.51
45393;BMP280;31129;44.810;10.334;2023-03-01T06:27:11;100958.75;;;5.58
45393;BMP280;31129;44.810;10.334;2023-03-01T06:29:37;100950.03;;;5.67
45393;BMP280;31129;44.810;10.334;2023-03-01T06:32:02;100949.53;;;5.72
45393;BMP280;31129;44.810;10.334;2023-03-01T06:34:28;100950.31;;;5.72
45393;BMP280;31129;44.810;10.334;2023-03-01T06:36:54;100949.22;;;5.86
45393;BMP280;31129;44.810;10.334;2023-03-01T06:39:19;100950.53;;;5.78
45393;BMP280;31129;44.810;10.334;2023-03-01T06:41:45;100953.78;;;5.89
45393;BMP280;31129;44.810;10.334;2023-03-01T06:44:10;100955.63;;;5.92
45393;BMP280;31129;44.810;10.334;2023-03-01T06:46:36;100957.56;;;5.91
45393;BMP280;31129;44.810;10.334;2023-03-01T06:49:01;100958.75;;;5.90
45393;BMP280;31129;44.810;10.334;2023-03-01T06:51:30;100963.53;;;6.03
45393;BMP280;31129;44.810;10.334;2023-03-01T06:53:55;100964.09;;;6.10
45393;BMP280;31129;44.810;10.334;2023-03-01T06:56:20;100962.72;;;6.18
45393;BMP280;31129;44.810;10.334;2023-03-01T06:58:46;100968.59;;;6.17
45393;BMP280;31129;44.810;10.334;2023-03-01T07:01:11;100963.75;;;6.08
45393;BMP280;31129;44.810;10.334;2023-03-01T07:03:39;100973.81;;;6.08
45393;BMP280;31129;44.810;10.334;2023-03-01T07:06:05;100972.81;;;6.18
45393;BMP280;31129;44.810;10.334;2023-03-01T07:08:30;100968.72;;;6.26
45393;BMP280;31129;44.810;10.334;2023-03-01T07:10:57;100966.06;;;6.55
45393;BMP280;31129;44.810;10.334;2023-03-01T07:13:22;100970.63;;;6.29
45393;BMP280;31129;44.810;10.334;2023-03-01T07:15:48;100972.56;;;6.29
45393;BMP280;31129;44.810;10.334;2023-03-01T07:18:13;100966.53;;;6.37
45393;BMP280;31129;44.810;10.334;2023-03-01T07:20:39;100971.44;;;6.42
45393;BMP280;31129;44.810;10.334;2023-03-01T07:23:05;100968.19;;;6.47
45393;BMP280;31129;44.810;10.334;2023-03-01T07:25:31;100961.16;;;6.50
45393;BMP280;31129;44.810;10.334;2023-03-01T07:27:57;100955.91;;;6.59
45393;BMP280;31129;44.810;10.334;2023-03-01T07:30:23;100951.16;;;6.63
45393;BMP280;31129;44.810;10.334;2023-03-01T07:32:54;100954.16;;;6.81
45393;BMP280;31129;44.810;10.334;2023-03-01T07:35:20;100956.16;;;7.06
45393;BMP280;31129;44.810;10.334;2023-03-01T07:37:49;100949.44;;;7.11
45393;BMP280;31129;44.810;10.334;2023-03-01T07:40:15;100956.81;;;7.10
45393;BMP280;31129;44.810;10.334;2023-03-01T07:42:40;100956.16;;;7.19
45393;BMP280;31129;44.810;10.334;2023-03-01T07:45:06;100949.47;;;7.36
45393;BMP280;31129;44.810;10.334;2023-03-01T07:47:32;100949.69;;;7.29
45393;BMP280;31129;44.810;10.334;2023-03-01T07:49:57;100946.31;;;7.38
45393;BMP280;31129;44.810;10.334;2023-03-01T07:52:23;100947.31;;;7.44
45393;BMP280;31129;44.810;10.334;2023-03-01T07:54:48;100948.69;;;7.23
45393;BMP280;31129;44.810;10.334;2023-03-01T07:57:14;100954.13;;;7.23
45393;BMP280;31129;44.810;10.334;2023-03-01T07:59:39;100954.19;;;6.65
45393;BMP280;31129;44.810;10.334;2023-03-01T08:02:05;100949.75;;;6.71
45393;BMP280;31129;44.810;10.334;2023-03-01T08:04:31;100945.34;;;6.48
45393;BMP280;31129;44.810;10.334;2023-03-01T08:06:58;100935.84;;;6.56
45393;BMP280;31129;44.810;10.334;2023-03-01T08:09:24;100940.72;;;6.62
45393;BMP280;31129;44.810;10.334;2023-03-01T08:11:49;100933.81;;;6.73
45393;BMP280;31129;44.810;10.334;2023-03-01T08:14:14;100940.63;;;6.65
45393;BMP280;31129;44.810;10.334;2023-03-01T08:16:40;100944.09;;;6.66
45393;BMP280;31129;44.810;10.334;2023-03-01T08:19:07;100938.44;;;6.60
45393;BMP280;31129;44.810;10.334;2023-03-01T08:21:33;100936.16;;;6.58
45393;BMP280;31129;44.810;10.334;2023-03-01T08:24:03;100939.81;;;6.52
45393;BMP280;31129;44.810;10.334;2023-03-01T08:26:29;100941.06;;;6.64
45393;BMP280;31129;44.810;10.334;2023-03-01T08:28:55;100941.09;;;6.47
45393;BMP280;31129;44.810;10.334;2023-03-01T08:31:23;100944.59;;;6.32
45393;BMP280;31129;44.810;10.334;2023-03-01T08:33:51;100939.09;;;6.35
45393;BMP280;31129;44.810;10.334;2023-03-01T08:36:21;100930.53;;;6.37
45393;BMP280;31129;44.810;10.334;2023-03-01T08:38:47;100924.69;;;6.38
45393;BMP280;31129;44.810;10.334;2023-03-01T08:41:13;100923.84;;;6.41
45393;BMP280;31129;44.810;10.334;2023-03-01T08:43:39;100921.75;;;6.33
45393;BMP280;31129;44.810;10.334;2023-03-01T08:46:04;100919.56;;;6.28
45393;BMP280;31129;44.810;10.334;2023-03-01T08:48:30;100915.13;;;6.34
45393;BMP280;31129;44.810;10.334;2023-03-01T08:50:55;100904.63;;;6.36
45393;BMP280;31129;44.810;10.334;2023-03-01T08:53:21;100902.59;;;6.40
45393;BMP280;31129;44.810;10.334;2023-03-01T08:55:46;100902.34;;;6.34
45393;BMP280;31129;44.810;10.334;2023-03-01T08:58:12;100894.47;;;6.40
45393;BMP280;31129;44.810;10.334;2023-03-01T09:00:37;100891.94;;;6.33
45393;BMP280;31129;44.810;10.334;2023-03-01T09:03:03;100905.06;;;6.34
45393;BMP280;31129;44.810;10.334;2023-03-01T09:05:33;100884.00;;;6.54
45393;BMP280;31129;44.810;10.334;2023-03-01T09:07:59;100895.50;;;6.58
45393;BMP280;31129;44.810;10.334;2023-03-01T09:10:24;100888.56;;;6.57
45393;BMP280;31129;44.810;10.334;2023-03-01T09:12:51;100894.50;;;6.81
45393;BMP280;31129;44.810;10.334;2023-03-01T09:15:16;100887.25;;;7.04
45393;BMP280;31129;44.810;10.334;2023-03-01T09:17:41;100884.69;;;6.71
45393;BMP280;31129;44.810;10.334;2023-03-01T09:20:07;100887.59;;;6.64
45393;BMP280;31129;44.810;10.334;2023-03-01T09:22:33;100881.03;;;6.78
45393;BMP280;31129;44.810;10.334;2023-03-01T09:25:00;100880.94;;;6.81
45393;BMP280;31129;44.810;10.334;2023-03-01T09:27:25;100878.66;;;6.80
45393;BMP280;31129;44.810;10.334;2023-03-01T09:29:51;100882.78;;;6.84
45393;BMP280;31129;44.810;10.334;2023-03-01T09:32:16;100879.41;;;6.80
45393;BMP280;31129;44.810;10.334;2023-03-01T09:34:41;100886.06;;;6.92
45393;BMP280;31129;44.810;10.334;2023-03-01T09:37:42;100884.88;;;6.93
45393;BMP280;31129;44.810;10.334;2023-03-01T09:40:21;100885.38;;;6.75
45393;BMP280;31129;44.810;10.334;2023-03-01T09:42:52;100885.44;;;6.72
45393;BMP280;31129;44.810;10.334;2023-03-01T09:45:25;100886.00;;;6.67
45393;BMP280;31129;44.810;10.334;2023-03-01T09:47:51;100881.22;;;6.71
45393;BMP280;31129;44.810;10.334;2023-03-01T09:50:23;100874.28;;;6.70
45393;BMP280;31129;44.810;10.334;2023-03-01T09:55:31;100869.22;;;6.97
45393;BMP280;31129;44.810;10.334;2023-03-01T10:00:57;100848.94;;;7.02
45393;BMP280;31129;44.810;10.334;2023-03-01T10:11:21;100847.41;;;7.01
45393;BMP280;31129;44.810;10.334;2023-03-01T10:14:13;100848.94;;;7.02
45393;BMP280;31129;44.810;10.334;2023-03-01T10:17:09;100833.53;;;6.99
45393;BMP280;31129;44.810;10.334;2023-03-01T10:22:21;100833.00;;;7.29
45393;BMP280;31129;44.810;10.334;2023-03-01T10:24:48;100830.88;;;7.46
45393;BMP280;31129;44.810;10.334;2023-03-01T10:27:17;100826.31;;;7.21
45393;BMP280;31129;44.810;10.334;2023-03-01T10:29:54;100827.25;;;7.14
45393;BMP280;31129;44.810;10.334;2023-03-01T10:32:23;100824.84;;;7.16
45393;BMP280;31129;44.810;10.334;2023-03-01T10:34:49;100809.25;;;7.20
45393;BMP280;31129;44.810;10.334;2023-03-01T10:37:18;100811.78;;;7.49
45393;BMP280;31129;44.810;10.334;2023-03-01T10:40:09;100806.84;;;7.22
45393;BMP280;31129;44.810;10.334;2023-03-01T10:42:38;100805.44;;;7.18
45393;BMP280;31129;44.810;10.334;2023-03-01T10:45:16;100794.56;;;7.31
45393;BMP280;31129;44.810;10.334;2023-03-01T10:48:03;100807.59;;;7.23
45393;BMP280;31129;44.810;10.334;2023-03-01T10:50:29;100797.06;;;7.38
45393;BMP280;31129;44.810;10.334;2023-03-01T10:53:03;100798.69;;;7.35
45393;BMP280;31129;44.810;10.334;2023-03-01T10:58:16;100788.84;;;7.63
45393;BMP280;31129;44.810;10.334;2023-03-01T11:03:33;100774.69;;;7.34
45393;BMP280;31129;44.810;10.334;2023-03-01T11:06:20;100775.66;;;7.40
45393;BMP280;31129;44.810;10.334;2023-03-01T11:08:49;100773.38;;;7.51
45393;BMP280;31129;44.810;10.334;2023-03-01T11:11:33;100770.38;;;7.58
45393;BMP280;31129;44.810;10.334;2023-03-01T11:14:20;100763.00;;;7.58
45393;BMP280;31129;44.810;10.334;2023-03-01T11:16:59;100757.56;;;7.58
45393;BMP280;31129;44.810;10.334;2023-03-01T11:19:25;100754.84;;;7.58
45393;BMP280;31129;44.810;10.334;2023-03-01T11:21:58;100749.56;;;7.55
45393;BMP280;31129;44.810;10.334;2023-03-01T11:24:49;100759.69;;;7.54
45393;BMP280;31129;44.810;10.334;2023-03-01T11:27:35;100761.53;;;7.45
45393;BMP280;31129;44.810;10.334;2023-03-01T11:32:36;100758.28;;;7.50
45393;BMP280;31129;44.810;10.334;2023-03-01T11:35:18;100756.53;;;7.56
45393;BMP280;31129;44.810;10.334;2023-03-01T11:37:58;100771.78;;;7.63
45393;BMP280;31129;44.810;10.334;2023-03-01T11:40:50;100761.94;;;7.56
45393;BMP280;31129;44.810;10.334;2023-03-01T11:51:46;100784.06;;;7.67
45393;BMP280;31129;44.810;10.334;2023-03-01T11:57:01;100782.75;;;7.59
45393;BMP280;31129;44.810;10.334;2023-03-01T12:10:35;100780.03;;;7.24
45393;BMP280;31129;44.810;10.334;2023-03-01T12:16:36;100792.97;;;7.20
45393;BMP280;31129;44.810;10.334;2023-03-01T12:19:08;100786.56;;;7.02
45393;BMP280;31129;44.810;10.334;2023-03-01T12:22:37;100779.00;;;7.09
45393;BMP280;31129;44.810;10.334;2023-03-01T12:27:53;100780.47;;;7.10
45393;BMP280;31129;44.810;10.334;2023-03-01T12:33:26;100783.94;;;6.73
45393;BMP280;31129;44.810;10.334;2023-03-01T12:36:26;100780.38;;;6.63
45393;BMP280;31129;44.810;10.334;2023-03-01T12:39:18;100785.03;;;6.63
45393;BMP280;31129;44.810;10.334;2023-03-01T12:49:57;100788.59;;;6.72
45393;BMP280;31129;44.810;10.334;2023-03-01T12:53:00;100783.00;;;6.79
45393;BMP280;31129;44.810;10.334;2023-03-01T12:55:32;100778.53;;;6.60
45393;BMP280;31129;44.810;10.334;2023-03-01T13:00:41;100766.88;;;6.34
45393;BMP280;31129;44.810;10.334;2023-03-01T13:08:58;100765.75;;;6.19
45393;BMP280;31129;44.810;10.334;2023-03-01T13:11:27;100768.19;;;6.30
45393;BMP280;31129;44.810;10.334;2023-03-01T13:16:51;100772.50;;;6.14
45393;BMP280;31129;44.810;10.334;2023-03-01T13:19:24;100775.13;;;6.31
45393;BMP280;31129;44.810;10.334;2023-03-01T13:21:52;100773.13;;;6.18
45393;BMP280;31129;44.810;10.334;2023-03-01T13:24:39;100763.53;;;6.30
45393;BMP280;31129;44.810;10.334;2023-03-01T13:32:28;100732.78;;;6.08
45393;BMP280;31129;44.810;10.334;2023-03-01T13:35:42;100727.47;;;6.04
45393;BMP280;31129;44.810;10.334;2023-03-01T13:37:44;100723.97;;;5.91
45393;BMP280;31129;44.810;10.334;2023-03-01T13:42:51;100730.56;;;5.90
45393;BMP280;31129;44.810;10.334;2023-03-01T13:45:20;100725.41;;;5.95
45393;BMP280;31129;44.810;10.334;2023-03-01T13:47:50;100728.25;;;6.05
45393;BMP280;31129;44.810;10.334;2023-03-01T13:50:24;100713.19;;;5.75
45393;BMP280;31129;44.810;10.334;2023-03-01T13:52:57;100727.09;;;5.60
45393;BMP280;31129;44.810;10.334;2023-03-01T13:55:42;100743.22;;;5.80
45393;BMP280;31129;44.810;10.334;2023-03-01T13:58:21;100744.00;;;5.93
45393;BMP280;31129;44.810;10.334;2023-03-01T14:00:47;100750.19;;;5.94
45393;BMP280;31129;44.810;10.334;2023-03-01T14:03:19;100761.03;;;5.94
45393;BMP280;31129;44.810;10.334;2023-03-01T14:06:01;100762.81;;;6.01
45393;BMP280;31129;44.810;10.334;2023-03-01T14:08:28;100758.69;;;6.09
45393;BMP280;31129;44.810;10.334;2023-03-01T14:11:04;100751.28;;;5.97
45393;BMP280;31129;44.810;10.334;2023-03-01T14:16:19;100747.75;;;6.00
45393;BMP280;31129;44.810;10.334;2023-03-01T14:18:56;100749.22;;;5.88
45393;BMP280;31129;44.810;10.334;2023-03-01T14:21:24;100758.88;;;5.89
45393;BMP280;31129;44.810;10.334;2023-03-01T14:23:52;100751.75;;;5.79
45393;BMP280;31129;44.810;10.334;2023-03-01T14:26:21;100746.28;;;5.82
45393;BMP280;31129;44.810;10.334;2023-03-01T14:28:48;100752.31;;;5.74
45393;BMP280;31129;44.810;10.334;2023-03-01T14:33:55;100748.63;;;5.80
45393;BMP280;31129;44.810;10.334;2023-03-01T14:36:27;100748.72;;;6.06
45393;BMP280;31129;44.810;10.334;2023-03-01T14:38:52;100747.38;;;5.85
45393;BMP280;31129;44.810;10.334;2023-03-01T14:41:24;100748.75;;;5.89
45393;BMP280;31129;44.810;10.334;2023-03-01T14:43:56;100747.19;;;6.05
45393;BMP280;31129;44.810;10.334;2023-03-01T14:49:02;100754.13;;;5.77
45393;BMP280;31129;44.810;10.334;2023-03-01T14:51:29;100749.69;;;5.70
45393;BMP280;31129;44.810;10.334;2023-03-01T14:53:55;100748.22;;;5.82
45393;BMP280;31129;44.810;10.334;2023-03-01T14:56:20;100749.81;;;5.79
45393;BMP280;31129;44.810;10.334;2023-03-01T14:58:51;100749.31;;;5.84
45393;BMP280;31129;44.810;10.334;2023-03-01T15:01:18;100745.16;;;5.80
45393;BMP280;31129;44.810;10.334;2023-03-01T15:03:48;100751.72;;;5.95
45393;BMP280;31129;44.810;10.334;2023-03-01T15:06:22;100755.28;;;5.92
45393;BMP280;31129;44.810;10.334;2023-03-01T15:08:50;100755.81;;;5.87
45393;BMP280;31129;44.810;10.334;2023-03-01T15:11:24;100755.94;;;5.96
45393;BMP280;31129;44.810;10.334;2023-03-01T15:13:52;100761.25;;;5.87
45393;BMP280;31129;44.810;10.334;2023-03-01T15:16:32;100755.75;;;5.74
45393;BMP280;31129;44.810;10.334;2023-03-01T15:19:05;100766.81;;;5.80
45393;BMP280;31129;44.810;10.334;2023-03-01T15:21:36;100758.25;;;5.98
45393;BMP280;31129;44.810;10.334;2023-03-01T15:24:13;100763.63;;;5.85
45393;BMP280;31129;44.810;10.334;2023-03-01T15:26:53;100766.38;;;6.10
45393;BMP280;31129;44.810;10.334;2023-03-01T15:29:27;100763.06;;;5.90
45393;BMP280;31129;44.810;10.334;2023-03-01T15:32:00;100767.19;;;5.94
45393;BMP280;31129;44.810;10.334;2023-03-01T15:34:32;100770.66;;;5.95
45393;BMP280;31129;44.810;10.334;2023-03-01T15:37:00;100758.97;;;5.85
45393;BMP280;31129;44.810;10.334;2023-03-01T15:39:41;100758.69;;;5.80
45393;BMP280;31129;44.810;10.334;2023-03-01T15:44:42;100764.38;;;5.85
45393;BMP280;31129;44.810;10.334;2023-03-01T15:47:29;100766.38;;;6.10
45393;BMP280;31129;44.810;10.334;2023-03-01T15:50:00;100767.56;;;6.09
45393;BMP280;31129;44.810;10.334;2023-03-01T15:52:33;100768.44;;;6.06
45393;BMP280;31129;44.810;10.334;2023-03-01T15:55:26;100773.38;;;5.95
45393;BMP280;31129;44.810;10.334;2023-03-01T15:58:15;100783.53;;;5.91
45393;BMP280;31129;44.810;10.334;2023-03-01T16:00:41;100772.94;;;5.97
45393;BMP280;31129;44.810;10.334;2023-03-01T16:03:10;100776.50;;;5.93
45393;BMP280;31129;44.810;10.334;2023-03-01T16:05:37;100774.94;;;5.80